Meath Park, Canada
Current Conditions -  °F | °C
As of 2:00 AM on Friday 21 Nov 2014 (Local Time) from CYPA Reporting Station
Freezing Rain Freezing Rain  
Wind Chill: 23°   Ceiling: 9500
Heat Index: 23°   Visibility: 15mi
Dew Point: 21°   Wind: 2mph
Humidity: 93%   Direction: 270°W
Pressure: 29.49"   Gusts: NA
Location:  53.45°N, 105.37°W
Report Text: CYPA 210800Z 27002KT 15SM -FZRA OVC095 M05/M06 A2949 RMK AC8 SLP013
Loading
Personal Weather Stations






























Interactive Weather Map New forecast layout! Learn more

10-Day Weather Forecast

Advertisements
Track Severe Weather on mobile